Terminal Aerodrome Forecast
Issued by NWS

Home | Current Version | Previous Version | Text Only | Print | Product List | Glossary On
Versions: 1 2 3 4 5 6 7 8 9 10 11 12 13 14 15 16 17 18 19 20 21
000
FTUS46 KOTX 211738
TAFPUW
TAF
KPUW 211738Z 2118/2218 10007KT P6SM FEW050
     FM212000 VRB03KT P6SM BKN150 BKN200
     FM220200 VRB02KT P6SM FEW070 BKN100
     FM220800 10005KT P6SM FEW040 OVC070
     FM221500 30007KT P6SM SCT025 OVC050=

USA.gov is the U.S. government's official web portal to all federal, state and local government web resources and services.